createdAt,value
2018-10-18T00:00:45.362Z,19.60
2018-10-18T00:03:16.039Z,17.12
2018-10-18T00:05:43.627Z,19.17
2018-10-18T00:08:12.045Z,17.55
2018-10-18T00:10:39.760Z,19.77
2018-10-18T00:13:07.376Z,18.52
2018-10-18T00:15:35.178Z,15.95
2018-10-18T00:18:03.814Z,18.57
2018-10-18T00:20:32.385Z,16.52
2018-10-18T00:23:00.714Z,18.60
2018-10-18T00:25:28.418Z,16.87
2018-10-18T00:27:56.861Z,18.60
2018-10-18T00:30:24.497Z,18.52
2018-10-18T00:32:52.185Z,20.37
2018-10-18T00:35:20.467Z,16.67
2018-10-18T00:37:48.166Z,16.27
2018-10-18T00:40:20.343Z,17.77
2018-10-18T00:42:48.045Z,15.83
2018-10-18T00:45:15.869Z,17.05
2018-10-18T00:47:43.788Z,18.27
2018-10-18T00:50:12.024Z,18.37
2018-10-18T00:52:41.055Z,18.82
2018-10-18T00:55:10.044Z,18.12
2018-10-18T00:57:38.264Z,19.20
2018-10-18T01:00:07.227Z,16.75
2018-10-18T01:02:35.073Z,15.63
2018-10-18T01:05:02.742Z,17.75
2018-10-18T01:07:35.040Z,17.02
2018-10-18T01:10:02.963Z,18.23
2018-10-18T01:12:31.222Z,17.50
2018-10-18T01:14:59.379Z,17.90
2018-10-18T01:17:28.267Z,17.67
2018-10-18T01:19:56.016Z,18.62
2018-10-18T01:22:23.683Z,19.32
2018-10-18T01:24:52.389Z,18.50
2018-10-18T01:27:20.200Z,18.73
2018-10-18T01:29:48.160Z,18.17
2018-10-18T01:32:15.842Z,17.98
2018-10-18T01:34:43.493Z,18.55
2018-10-18T01:37:11.181Z,19.10
2018-10-18T01:39:38.767Z,18.50
2018-10-18T01:42:06.638Z,18.25
2018-10-18T01:44:34.279Z,16.30
2018-10-18T01:47:01.946Z,19.37
2018-10-18T01:49:29.634Z,20.70
2018-10-18T01:51:57.428Z,18.80
2018-10-18T01:54:26.134Z,19.35
2018-10-18T01:56:53.872Z,18.82
2018-10-18T01:59:22.028Z,21.20
2018-10-18T02:01:50.219Z,18.48
2018-10-18T02:04:17.958Z,16.70
2018-10-18T02:06:45.585Z,17.37
2018-10-18T02:09:13.313Z,17.90
2018-10-18T02:11:41.577Z,20.30
2018-10-18T02:14:09.353Z,18.77
2018-10-18T02:16:37.195Z,19.80
2018-10-18T02:19:05.315Z,18.75
2018-10-18T02:21:32.966Z,18.77
2018-10-18T02:24:00.708Z,19.23
2018-10-18T02:26:28.979Z,21.35
2018-10-18T02:28:56.657Z,22.30
2018-10-18T02:31:24.313Z,21.27
2018-10-18T02:33:52.069Z,20.90
2018-10-18T02:36:20.155Z,20.45
2018-10-18T02:38:47.847Z,20.70
2018-10-18T02:41:15.743Z,20.50
2018-10-18T02:43:43.386Z,20.43
2018-10-18T02:46:11.035Z,20.92
2018-10-18T02:48:38.834Z,19.00
2018-10-18T02:51:06.487Z,20.45
2018-10-18T02:53:38.762Z,18.95
2018-10-18T02:56:07.168Z,20.43
2018-10-18T02:58:36.122Z,22.32
2018-10-18T03:01:04.013Z,21.07
2018-10-18T03:03:31.884Z,20.70
2018-10-18T03:06:00.350Z,19.35
2018-10-18T03:08:28.585Z,20.62
2018-10-18T03:10:56.267Z,18.75
2018-10-18T03:13:23.959Z,21.50
2018-10-18T03:15:51.801Z,19.45
2018-10-18T03:18:19.436Z,21.33
2018-10-18T03:20:47.848Z,21.27
2018-10-18T03:23:15.542Z,20.55
2018-10-18T03:25:43.793Z,19.82
2018-10-18T03:28:12.430Z,19.60
2018-10-18T03:30:40.853Z,19.73
2018-10-18T03:33:09.418Z,19.95
2018-10-18T03:35:38.398Z,19.55
2018-10-18T03:40:37.236Z,21.95
2018-10-18T03:43:10.401Z,21.12
2018-10-18T03:45:42.595Z,21.80
2018-10-18T03:48:10.360Z,21.12
2018-10-18T03:50:38.710Z,21.85
2018-10-18T03:53:06.278Z,24.45
2018-10-18T03:55:38.107Z,22.22
2018-10-18T03:58:06.539Z,27.20
2018-10-18T04:00:34.304Z,27.82
2018-10-18T04:03:02.108Z,26.70
2018-10-18T04:05:29.778Z,26.12
2018-10-18T04:07:58.347Z,26.27
2018-10-18T04:10:26.028Z,25.55
2018-10-18T04:12:53.877Z,25.12
2018-10-18T04:15:21.439Z,23.45
2018-10-18T04:17:49.452Z,24.37
2018-10-18T04:20:17.055Z,22.50
2018-10-18T04:22:46.631Z,23.83
2018-10-18T04:25:14.937Z,56.85
2018-10-18T04:27:43.240Z,34.90
2018-10-18T04:32:12.894Z,28.10
2018-10-18T04:34:40.917Z,24.20
2018-10-18T04:37:09.230Z,23.30
2018-10-18T04:39:37.623Z,25.20
2018-10-18T04:42:05.497Z,23.83
2018-10-18T04:44:33.053Z,21.52
2018-10-18T04:47:00.782Z,25.45
2018-10-18T04:49:28.465Z,22.93
2018-10-18T04:51:56.218Z,22.40
2018-10-18T04:54:24.568Z,22.50
2018-10-18T04:56:52.577Z,24.23
2018-10-18T04:59:21.317Z,25.05
2018-10-18T05:01:49.674Z,23.38
2018-10-18T05:04:17.422Z,22.50
2018-10-18T05:06:45.255Z,22.90
2018-10-18T05:09:12.898Z,21.73
2018-10-18T05:11:41.255Z,22.07
2018-10-18T05:14:09.646Z,23.42
2018-10-18T05:16:37.372Z,21.57
2018-10-18T05:19:05.396Z,22.80
2018-10-18T05:21:33.474Z,24.02
2018-10-18T05:24:01.186Z,24.57
2018-10-18T05:26:29.006Z,22.05
2018-10-18T05:28:56.848Z,22.95
2018-10-18T05:31:25.366Z,23.15
2018-10-18T05:33:53.105Z,23.32
2018-10-18T05:36:22.185Z,23.73
2018-10-18T05:38:49.888Z,24.00
2018-10-18T05:41:17.621Z,22.58
2018-10-18T05:43:47.083Z,23.40
2018-10-18T05:46:14.836Z,23.00
2018-10-18T05:48:43.856Z,23.22
2018-10-18T05:51:12.476Z,24.65
2018-10-18T05:53:42.569Z,25.12
2018-10-18T05:56:10.171Z,23.92
2018-10-18T05:58:38.022Z,23.07
2018-10-18T06:01:05.966Z,23.32
2018-10-18T06:03:33.746Z,23.52
2018-10-18T06:06:01.489Z,23.07
2018-10-18T06:08:29.718Z,22.42
2018-10-18T06:11:08.803Z,23.75
2018-10-18T06:13:36.609Z,22.30
2018-10-18T06:16:04.395Z,23.10
2018-10-18T06:18:32.071Z,21.93
2018-10-18T06:20:59.671Z,45.12
2018-10-18T06:23:27.539Z,34.30
2018-10-18T06:25:59.842Z,27.95
2018-10-18T06:28:27.665Z,25.80
2018-10-18T06:30:55.494Z,26.05
2018-10-18T06:33:23.202Z,23.25
2018-10-18T06:35:50.865Z,23.87
2018-10-18T06:38:18.554Z,23.95
2018-10-18T06:40:50.933Z,23.90
2018-10-18T06:43:18.818Z,23.42
2018-10-18T06:45:47.399Z,23.67
2018-10-18T06:48:15.034Z,25.32
2018-10-18T06:50:42.799Z,23.60
2018-10-18T06:53:10.519Z,23.98
2018-10-18T06:55:38.258Z,22.67
2018-10-18T06:58:06.518Z,23.60
2018-10-18T07:00:34.160Z,25.30
2018-10-18T07:03:02.330Z,23.75
2018-10-18T07:05:30.602Z,24.02
2018-10-18T07:07:58.393Z,21.75
2018-10-18T07:10:26.384Z,24.60
2018-10-18T07:12:54.815Z,24.25
2018-10-18T07:15:23.697Z,25.57
2018-10-18T07:17:51.393Z,24.67
2018-10-18T07:20:19.044Z,27.00
2018-10-18T07:22:46.683Z,26.10
2018-10-18T07:25:15.327Z,23.98
2018-10-18T07:27:43.907Z,24.32
2018-10-18T07:30:13.336Z,23.90
2018-10-18T07:32:41.239Z,23.73
2018-10-18T07:35:10.133Z,22.02
2018-10-18T07:37:42.090Z,23.70
2018-10-18T07:40:12.644Z,28.90
2018-10-18T07:42:42.025Z,23.42
2018-10-18T07:45:10.865Z,24.07
2018-10-18T07:47:39.125Z,25.27
2018-10-18T07:50:07.075Z,25.45
2018-10-18T07:52:35.130Z,23.95
2018-10-18T07:55:03.333Z,31.15
2018-10-18T07:57:31.161Z,24.67
2018-10-18T07:59:59.407Z,24.75
2018-10-18T08:02:26.970Z,24.60
2018-10-18T08:05:02.669Z,27.05
2018-10-18T08:07:30.798Z,26.73
2018-10-18T08:09:58.632Z,25.85
2018-10-18T08:12:26.769Z,26.97
2018-10-18T08:14:54.558Z,25.68
2018-10-18T08:17:23.080Z,27.48
2018-10-18T08:19:50.923Z,28.92
2018-10-18T08:22:18.689Z,26.85
2018-10-18T08:24:46.392Z,25.90
2018-10-18T08:27:14.021Z,26.97
2018-10-18T08:29:41.719Z,27.52
2018-10-18T08:32:09.342Z,27.22
2018-10-18T08:34:37.313Z,26.27
2018-10-18T08:37:05.245Z,33.35
2018-10-18T08:39:32.980Z,28.62
2018-10-18T08:42:01.392Z,26.02
2018-10-18T08:44:29.710Z,26.65
2018-10-18T08:46:57.995Z,28.30
2018-10-18T08:49:25.576Z,28.23
2018-10-18T08:51:53.233Z,26.93
2018-10-18T08:54:20.830Z,25.97
2018-10-18T08:56:48.538Z,26.60
2018-10-18T08:59:16.282Z,29.52
2018-10-18T09:01:48.282Z,29.48
2018-10-18T09:04:21.112Z,28.27
2018-10-18T09:06:48.815Z,28.27
2018-10-18T09:09:16.581Z,29.40
2018-10-18T09:11:46.776Z,29.80
2018-10-18T09:14:14.608Z,28.62
2018-10-18T09:16:42.945Z,28.32
2018-10-18T09:19:11.361Z,28.42
2018-10-18T09:21:38.942Z,38.00
2018-10-18T09:24:06.855Z,30.20
2018-10-18T09:26:34.465Z,29.63
2018-10-18T09:29:02.552Z,29.48
2018-10-18T09:31:30.961Z,28.55
2018-10-18T09:33:59.257Z,30.12
2018-10-18T09:36:26.926Z,32.38
2018-10-18T09:38:54.581Z,31.60
2018-10-18T09:41:22.998Z,27.45
2018-10-18T09:43:55.184Z,29.55
2018-10-18T09:46:22.951Z,29.87
2018-10-18T09:48:50.549Z,25.80
2018-10-18T09:51:18.572Z,27.43
2018-10-18T09:53:46.269Z,28.23
2018-10-18T09:56:13.987Z,28.92
2018-10-18T09:58:42.316Z,29.52
2018-10-18T10:01:15.648Z,26.87
2018-10-18T10:03:43.456Z,28.60
2018-10-18T10:06:12.253Z,28.02
2018-10-18T10:08:39.974Z,27.85
2018-10-18T10:11:07.891Z,27.10
2018-10-18T10:13:35.618Z,28.20
2018-10-18T10:16:03.726Z,29.55
2018-10-18T10:18:32.030Z,29.10
2018-10-18T10:21:04.019Z,29.55
2018-10-18T10:23:31.701Z,29.10
2018-10-18T10:25:59.346Z,29.30
2018-10-18T10:30:54.790Z,28.67
2018-10-18T10:33:23.900Z,28.62
2018-10-18T10:35:51.865Z,28.52
2018-10-18T10:38:20.121Z,26.70
2018-10-18T10:40:47.811Z,27.70
2018-10-18T10:43:15.540Z,27.73
2018-10-18T10:45:43.299Z,29.70
2018-10-18T10:48:15.614Z,28.03
2018-10-18T10:50:43.307Z,28.17
2018-10-18T10:53:11.001Z,27.90
2018-10-18T16:21:41.977Z,20.67
2018-10-18T16:27:08.308Z,21.97
2018-10-18T16:29:36.101Z,19.93
2018-10-18T16:32:04.157Z,18.67
2018-10-18T16:34:32.096Z,22.40
2018-10-18T16:36:59.896Z,20.90
2018-10-18T16:39:27.743Z,18.47
2018-10-18T16:41:58.761Z,23.83
2018-10-18T16:44:26.643Z,21.13
2018-10-18T16:46:56.146Z,21.67
2018-10-18T16:49:24.644Z,23.33
2018-10-18T16:51:52.483Z,24.20
2018-10-18T16:54:21.142Z,21.90
2018-10-18T16:56:50.291Z,20.80
2018-10-18T16:59:17.976Z,23.40
2018-10-18T17:01:45.633Z,23.90
2018-10-18T17:04:13.521Z,23.60
2018-10-18T17:06:41.165Z,22.97
2018-10-18T17:09:09.560Z,24.33
2018-10-18T17:11:38.307Z,23.10
2018-10-18T17:14:05.931Z,24.03
2018-10-18T17:16:33.686Z,24.93
2018-10-18T17:19:01.323Z,23.30
2018-10-18T17:21:29.154Z,24.37
2018-10-18T17:23:56.858Z,23.20
2018-10-18T17:26:24.624Z,23.90
2018-10-18T17:28:52.394Z,22.87
2018-10-18T17:31:20.666Z,19.97
2018-10-18T17:33:49.027Z,23.57
2018-10-18T17:36:17.096Z,24.20
2018-10-18T17:38:44.922Z,23.40
2018-10-18T17:41:12.736Z,19.77
2018-10-18T17:43:40.367Z,24.53
2018-10-18T17:46:08.213Z,22.60
2018-10-18T17:48:36.008Z,25.50
2018-10-18T17:51:04.513Z,25.27
2018-10-18T17:53:33.207Z,22.37
2018-10-18T17:56:01.582Z,24.63
2018-10-18T17:58:35.088Z,23.37
2018-10-18T18:01:04.626Z,22.63
2018-10-18T18:03:32.733Z,21.70
2018-10-18T18:06:00.849Z,22.50
2018-10-18T18:08:28.555Z,23.47
2018-10-18T18:11:00.778Z,23.63
2018-10-18T18:13:28.654Z,23.00
2018-10-18T18:16:01.736Z,23.52
2018-10-18T18:18:29.943Z,23.87
2018-10-18T18:20:57.740Z,22.75
2018-10-18T18:23:25.573Z,22.20
2018-10-18T18:25:53.313Z,24.20
2018-10-18T18:28:21.073Z,22.20
2018-10-18T18:30:49.470Z,23.33
2018-10-18T18:33:17.242Z,23.60
2018-10-18T18:35:45.003Z,25.47
2018-10-18T18:38:12.768Z,23.02
2018-10-18T18:40:40.780Z,25.03
2018-10-18T18:43:08.562Z,25.50
2018-10-18T18:45:36.510Z,24.60
2018-10-18T18:48:04.799Z,26.27
2018-10-18T18:50:33.241Z,24.15
2018-10-18T18:53:01.385Z,25.32
2018-10-18T18:55:29.039Z,23.47
2018-10-18T18:57:57.877Z,24.70
2018-10-18T19:00:25.786Z,25.95
2018-10-18T19:02:53.548Z,23.70
2018-10-18T19:05:21.303Z,25.45
2018-10-18T19:07:49.122Z,27.50
2018-10-18T19:10:17.685Z,27.35
2018-10-18T19:12:45.533Z,25.80
2018-10-18T19:15:13.234Z,25.35
2018-10-18T19:17:40.815Z,26.87
2018-10-18T19:20:09.111Z,25.70
2018-10-18T19:22:36.828Z,25.62
2018-10-18T19:25:05.725Z,25.10
2018-10-18T19:27:34.099Z,27.20
2018-10-18T19:30:02.393Z,25.72
2018-10-18T19:32:30.682Z,25.48
2018-10-18T19:34:58.485Z,30.25
2018-10-18T19:37:26.316Z,28.20
2018-10-18T19:39:53.997Z,28.15
2018-10-18T19:42:21.761Z,27.93
2018-10-18T19:44:49.532Z,27.07
2018-10-18T19:47:17.292Z,27.37
2018-10-18T19:49:44.995Z,26.10
2018-10-18T19:52:12.972Z,26.20
2018-10-18T19:54:40.950Z,28.40
2018-10-18T19:57:08.749Z,26.35
2018-10-18T19:59:36.400Z,27.40
2018-10-18T20:02:04.264Z,26.02
2018-10-18T20:04:31.907Z,26.33
2018-10-18T20:06:59.640Z,27.20
2018-10-18T20:09:27.354Z,25.55
2018-10-18T20:11:54.996Z,26.10
2018-10-18T20:14:22.802Z,28.57
2018-10-18T20:16:50.538Z,29.15
2018-10-18T20:19:18.181Z,26.10
2018-10-18T20:21:45.874Z,27.42
2018-10-18T20:24:13.589Z,27.45
2018-10-18T20:26:41.175Z,26.30
2018-10-18T20:29:08.857Z,25.88
2018-10-18T20:31:37.162Z,26.33
2018-10-18T20:34:05.172Z,26.33
2018-10-18T20:36:32.938Z,25.05
2018-10-18T20:39:00.655Z,25.92
2018-10-18T20:41:28.345Z,27.10
2018-10-18T20:43:56.419Z,28.27
2018-10-18T20:46:24.325Z,27.87
2018-10-18T20:48:52.182Z,25.95
2018-10-18T20:51:19.984Z,27.60
2018-10-18T20:53:47.637Z,29.48
2018-10-18T20:56:15.342Z,27.42
2018-10-18T20:58:42.980Z,27.75
2018-10-18T21:01:10.559Z,28.67
2018-10-18T21:03:38.210Z,27.35
2018-10-18T21:06:05.895Z,24.67
2018-10-18T21:08:33.560Z,22.22
2018-10-18T21:11:01.236Z,25.62
2018-10-18T21:13:28.978Z,27.58
2018-10-18T21:15:56.633Z,28.15
2018-10-18T21:18:24.320Z,27.42
2018-10-18T21:20:52.198Z,29.92
2018-10-18T21:23:19.887Z,27.80
2018-10-18T21:25:47.549Z,30.62
2018-10-18T21:28:15.271Z,29.35
2018-10-18T21:30:42.918Z,31.10
2018-10-18T21:33:10.583Z,30.85
2018-10-18T21:35:38.138Z,32.05
2018-10-18T21:38:06.502Z,30.85
2018-10-18T21:40:34.401Z,29.45
2018-10-18T21:43:02.356Z,32.35
2018-10-18T21:45:30.348Z,31.05
2018-10-18T21:47:58.296Z,32.93
2018-10-18T21:50:25.910Z,29.42
2018-10-18T21:52:53.626Z,30.77
2018-10-18T21:55:21.258Z,29.92
2018-10-18T21:57:48.897Z,33.67
2018-10-18T22:00:16.989Z,32.38
2018-10-18T22:02:46.416Z,30.02
2018-10-18T22:05:14.613Z,32.00
2018-10-18T22:07:42.545Z,31.87
2018-10-18T22:10:10.681Z,31.20
2018-10-18T22:12:38.444Z,32.15
2018-10-18T22:15:07.650Z,31.42
2018-10-18T22:17:35.449Z,30.05
2018-10-18T22:20:03.937Z,30.50
2018-10-18T22:22:31.490Z,32.15
2018-10-18T22:24:59.218Z,32.23
2018-10-18T22:27:27.499Z,30.80
2018-10-18T22:29:55.229Z,31.95
2018-10-18T22:32:22.881Z,31.93
2018-10-18T22:34:50.612Z,32.93
2018-10-18T22:37:18.219Z,31.50
2018-10-18T22:39:45.786Z,30.75
2018-10-18T22:42:13.548Z,31.00
2018-10-18T22:44:41.082Z,32.73
2018-10-18T22:47:08.705Z,30.75
2018-10-18T22:49:36.937Z,33.10
2018-10-18T22:52:04.698Z,31.23
2018-10-18T22:54:32.949Z,33.67
2018-10-18T22:57:00.617Z,34.15
2018-10-18T22:59:28.218Z,33.42
2018-10-18T23:01:55.788Z,35.48
2018-10-18T23:04:23.409Z,33.13
2018-10-18T23:06:51.106Z,31.23
2018-10-18T23:09:18.760Z,33.33
2018-10-18T23:11:46.319Z,32.45
2018-10-18T23:14:13.897Z,35.70
2018-10-18T23:16:42.365Z,33.35
2018-10-18T23:19:10.262Z,33.23
2018-10-18T23:21:37.845Z,31.77
2018-10-18T23:24:06.480Z,33.75
2018-10-18T23:26:34.055Z,33.78
2018-10-18T23:29:01.749Z,32.58
2018-10-18T23:31:29.383Z,32.40
2018-10-18T23:33:57.720Z,34.48
2018-10-18T23:36:25.301Z,31.40
2018-10-18T23:38:52.927Z,35.10
2018-10-18T23:41:20.538Z,32.15
2018-10-18T23:43:48.094Z,34.27
2018-10-18T23:46:15.789Z,33.70
2018-10-18T23:48:43.485Z,34.88
2018-10-18T23:51:11.219Z,32.65
2018-10-18T23:53:39.317Z,32.55
2018-10-18T23:56:06.994Z,31.65
2018-10-18T23:58:34.642Z,32.00
